createdAt,value
2018-07-14T00:01:25.363Z,17.90
2018-07-14T00:03:53.965Z,17.90
2018-07-14T00:08:51.715Z,17.70
2018-07-14T00:11:20.389Z,17.70
2018-07-14T00:13:49.067Z,17.70
2018-07-14T00:16:17.749Z,17.70
2018-07-14T00:18:46.397Z,17.60
2018-07-14T00:21:14.986Z,17.60
2018-07-14T00:23:43.600Z,17.60
2018-07-14T00:28:41.372Z,17.60
2018-07-14T00:31:10.005Z,17.60
2018-07-14T00:33:38.628Z,17.60
2018-07-14T00:36:07.260Z,17.50
2018-07-14T00:38:35.984Z,17.50
2018-07-14T00:41:04.680Z,17.50
2018-07-14T00:43:33.513Z,17.40
2018-07-14T00:46:02.264Z,17.50
2018-07-14T00:48:30.902Z,17.40
2018-07-14T00:50:59.543Z,17.40
2018-07-14T00:53:28.203Z,17.40
2018-07-14T00:55:56.828Z,17.40
2018-07-14T00:58:25.429Z,17.30
2018-07-14T01:00:54.105Z,17.20
2018-07-14T01:03:22.770Z,17.30
2018-07-14T01:05:51.463Z,17.30
2018-07-14T01:08:20.102Z,17.20
2018-07-14T01:10:48.721Z,17.20
2018-07-14T01:13:17.359Z,17.10
2018-07-14T01:15:45.974Z,17.10
2018-07-14T01:18:14.624Z,17.20
2018-07-14T01:20:43.304Z,17.20
2018-07-14T01:23:12.659Z,17.10
2018-07-14T01:25:41.699Z,17.10
2018-07-14T01:28:10.344Z,17.10
2018-07-14T01:30:39.004Z,17.00
2018-07-14T01:33:07.821Z,17.00
2018-07-14T01:35:36.493Z,17.00
2018-07-14T01:38:05.142Z,16.90
2018-07-14T01:40:33.909Z,16.80
2018-07-14T01:43:02.588Z,16.80
2018-07-14T01:45:31.265Z,16.60
2018-07-14T01:47:59.918Z,16.60
2018-07-14T01:50:28.601Z,16.50
2018-07-14T01:52:57.231Z,16.50
2018-07-14T01:55:25.890Z,16.50
2018-07-14T01:57:54.568Z,16.50
2018-07-14T02:00:23.208Z,16.50
2018-07-14T02:02:51.913Z,16.50
2018-07-14T02:05:20.651Z,16.50
2018-07-14T02:07:49.279Z,16.50
2018-07-14T02:10:17.936Z,16.50
2018-07-14T02:12:46.567Z,16.50
2018-07-14T02:15:15.260Z,16.50
2018-07-14T02:17:43.900Z,16.50
2018-07-14T02:20:12.561Z,16.50
2018-07-14T02:22:41.239Z,16.50
2018-07-14T02:25:09.957Z,16.40
2018-07-14T02:27:38.527Z,16.40
2018-07-14T02:30:07.162Z,16.40
2018-07-14T02:32:35.835Z,16.40
2018-07-14T02:35:04.446Z,16.40
2018-07-14T02:37:33.150Z,16.30
2018-07-14T02:40:01.753Z,16.30
2018-07-14T02:42:30.407Z,16.30
2018-07-14T02:44:59.100Z,16.30
2018-07-14T02:47:27.774Z,16.30
2018-07-14T02:49:56.411Z,16.40
2018-07-14T02:52:25.027Z,16.40
2018-07-14T02:54:53.663Z,16.30
2018-07-14T02:57:22.265Z,16.40
2018-07-14T02:59:50.907Z,16.40
2018-07-14T03:02:19.549Z,16.50
2018-07-14T03:04:48.203Z,16.50
2018-07-14T03:07:16.819Z,16.50
2018-07-14T03:09:45.452Z,16.50
2018-07-14T03:12:14.177Z,16.50
2018-07-14T03:14:42.972Z,16.50
2018-07-14T03:17:11.569Z,16.50
2018-07-14T03:19:40.224Z,16.40
2018-07-14T03:22:08.858Z,16.40
2018-07-14T03:24:37.517Z,16.30
2018-07-14T03:27:06.201Z,16.30
2018-07-14T03:29:34.900Z,16.20
2018-07-14T03:32:03.569Z,16.20
2018-07-14T03:34:32.186Z,16.10
2018-07-14T03:37:00.910Z,16.10
2018-07-14T03:39:29.574Z,16.10
2018-07-14T03:41:58.383Z,16.10
2018-07-14T03:44:26.983Z,16.10
2018-07-14T03:49:23.898Z,16.10
2018-07-14T03:51:52.550Z,16.10
2018-07-14T03:54:21.142Z,16.10
2018-07-14T03:56:49.784Z,16.10
2018-07-14T03:59:18.440Z,16.10
2018-07-14T04:01:47.136Z,16.20
2018-07-14T04:04:15.802Z,16.20
2018-07-14T04:09:12.732Z,16.20
2018-07-14T04:11:41.402Z,16.10
2018-07-14T04:14:10.025Z,16.10
2018-07-14T04:16:38.654Z,16.00
2018-07-14T04:19:07.295Z,16.00
2018-07-14T04:21:35.949Z,16.10
2018-07-14T04:24:04.577Z,16.10
2018-07-14T04:26:33.211Z,16.20
2018-07-14T04:29:01.941Z,16.20
2018-07-14T04:31:30.631Z,16.20
2018-07-14T04:33:59.330Z,16.20
2018-07-14T04:36:27.998Z,16.20
2018-07-14T04:38:56.636Z,16.10
2018-07-14T04:41:25.286Z,16.00
2018-07-14T04:43:54.232Z,16.00
2018-07-14T04:46:22.924Z,16.10
2018-07-14T04:48:51.556Z,16.10
2018-07-14T04:51:20.232Z,16.20
2018-07-14T04:53:48.878Z,16.30
2018-07-14T04:56:17.534Z,16.40
2018-07-14T04:58:46.168Z,16.50
2018-07-14T05:01:14.880Z,16.50
2018-07-14T05:03:43.543Z,16.60
2018-07-14T05:06:12.171Z,16.60
2018-07-14T05:08:40.803Z,16.70
2018-07-14T05:11:09.424Z,16.70
2018-07-14T05:13:38.050Z,16.70
2018-07-14T05:16:06.909Z,16.50
2018-07-14T05:18:35.611Z,16.50
2018-07-14T05:21:04.309Z,16.50
2018-07-14T05:23:32.961Z,16.40
2018-07-14T05:26:01.717Z,16.50
2018-07-14T05:28:30.409Z,16.50
2018-07-14T05:30:59.048Z,16.50
2018-07-14T05:33:27.668Z,16.60
2018-07-14T05:35:56.321Z,16.70
2018-07-14T05:38:25.001Z,16.80
2018-07-14T05:40:53.666Z,17.00
2018-07-14T05:43:22.314Z,17.20
2018-07-14T05:45:50.993Z,17.20
2018-07-14T05:48:19.668Z,17.30
2018-07-14T05:50:48.307Z,17.40
2018-07-14T05:53:16.970Z,17.60
2018-07-14T05:55:45.608Z,17.70
2018-07-14T05:58:14.244Z,17.80
2018-07-14T06:00:42.885Z,18.00
2018-07-14T06:03:11.560Z,18.20
2018-07-14T06:05:40.180Z,18.40
2018-07-14T06:08:08.975Z,18.50
2018-07-14T06:10:37.593Z,18.30
2018-07-14T06:15:34.587Z,18.20
2018-07-14T06:18:03.289Z,18.20
2018-07-14T06:20:31.991Z,18.20
2018-07-14T06:23:00.705Z,18.20
2018-07-14T06:27:57.653Z,18.40
2018-07-14T06:30:26.352Z,18.30
2018-07-14T06:35:23.698Z,18.70
2018-07-14T06:37:52.397Z,18.90
2018-07-14T06:40:21.093Z,19.00
2018-07-14T06:42:49.794Z,19.20
2018-07-14T06:45:18.480Z,19.20
2018-07-14T06:47:47.139Z,19.30
2018-07-14T06:50:15.811Z,19.50
2018-07-14T06:52:44.517Z,19.40
2018-07-14T06:55:13.231Z,19.30
2018-07-14T06:57:41.959Z,19.40
2018-07-14T07:00:10.631Z,19.20
2018-07-14T07:02:39.321Z,19.20
2018-07-14T07:05:07.999Z,19.40
2018-07-14T07:07:36.668Z,19.50
2018-07-14T07:10:05.477Z,19.50
2018-07-14T07:12:34.212Z,19.50
2018-07-14T07:15:02.852Z,19.70
2018-07-14T07:17:31.436Z,19.80
2018-07-14T07:20:00.121Z,19.90
2018-07-14T07:22:28.821Z,19.90
2018-07-14T07:24:57.515Z,20.20
2018-07-14T07:27:26.188Z,20.30
2018-07-14T07:29:54.838Z,20.40
2018-07-14T07:32:23.515Z,20.40
2018-07-14T07:37:20.451Z,20.60
2018-07-14T07:39:49.141Z,20.70
2018-07-14T07:42:17.796Z,20.60
2018-07-14T07:44:46.425Z,20.60
2018-07-14T07:47:15.089Z,20.60
2018-07-14T07:49:43.801Z,20.70
2018-07-14T07:52:12.391Z,20.80
2018-07-14T07:54:41.049Z,20.90
2018-07-14T07:57:09.761Z,20.90
2018-07-14T07:59:38.385Z,21.00
2018-07-14T08:02:07.630Z,20.90
2018-07-14T08:04:36.312Z,20.90
2018-07-14T08:07:05.662Z,21.10
2018-07-14T08:09:34.290Z,21.10
2018-07-14T08:12:03.114Z,21.20
2018-07-14T08:14:31.785Z,21.40
2018-07-14T08:17:00.398Z,21.50
2018-07-14T08:19:29.136Z,21.60
2018-07-14T08:21:57.802Z,21.80
2018-07-14T08:24:26.455Z,21.70
2018-07-14T08:26:55.211Z,21.80
2018-07-14T08:29:23.891Z,21.90
2018-07-14T08:31:52.499Z,22.00
2018-07-14T08:34:21.176Z,22.20
2018-07-14T08:36:49.828Z,22.10
2018-07-14T08:39:18.430Z,22.20
2018-07-14T08:41:47.083Z,22.20
2018-07-14T08:44:15.811Z,22.40
2018-07-14T08:46:44.484Z,22.40
2018-07-14T08:49:13.136Z,22.60
2018-07-14T08:51:42.062Z,22.50
2018-07-14T08:54:10.760Z,22.70
2018-07-14T08:56:39.409Z,22.80
2018-07-14T08:59:08.055Z,23.00
2018-07-14T09:01:36.824Z,23.10
2018-07-14T09:04:05.574Z,23.10
2018-07-14T09:06:34.488Z,23.20
2018-07-14T09:09:03.229Z,23.20
2018-07-14T09:11:32.029Z,23.30
2018-07-14T09:14:00.747Z,23.40
2018-07-14T09:16:29.520Z,23.50
2018-07-14T09:18:58.092Z,23.50
2018-07-14T09:21:26.743Z,23.50
2018-07-14T09:23:55.487Z,23.50
2018-07-14T09:26:24.122Z,23.60
2018-07-14T09:28:52.808Z,23.90
2018-07-14T09:31:21.462Z,23.90
2018-07-14T09:33:50.252Z,24.00
2018-07-14T09:36:18.967Z,24.20
2018-07-14T09:38:47.709Z,24.10
2018-07-14T09:41:16.312Z,24.00
2018-07-14T09:43:45.025Z,23.90
2018-07-14T09:46:13.675Z,24.00
2018-07-14T09:48:42.332Z,24.40
2018-07-14T09:51:11.053Z,24.80
2018-07-14T09:53:39.785Z,25.20
2018-07-14T09:56:08.473Z,24.90
2018-07-14T09:58:37.135Z,24.80
2018-07-14T10:01:08.634Z,24.80
2018-07-14T10:03:38.132Z,24.30
2018-07-14T10:06:06.892Z,24.30
2018-07-14T10:08:35.646Z,24.50
2018-07-14T10:11:04.951Z,24.80
2018-07-14T10:13:33.620Z,25.20
2018-07-14T10:16:02.383Z,25.40
2018-07-14T10:18:31.155Z,25.50
2018-07-14T10:20:59.882Z,25.80
2018-07-14T10:23:28.634Z,26.10
2018-07-14T10:25:57.464Z,26.20
2018-07-14T10:28:26.030Z,26.00
2018-07-14T10:30:54.698Z,25.90
2018-07-14T10:33:23.324Z,25.60
2018-07-14T10:35:52.023Z,25.30
2018-07-14T10:38:20.683Z,24.90
2018-07-14T10:43:17.885Z,25.30
2018-07-14T10:45:46.556Z,25.70
2018-07-14T10:48:15.169Z,26.10
2018-07-14T10:50:43.899Z,26.40
2018-07-14T10:53:12.529Z,26.80
2018-07-14T10:55:41.176Z,27.10
2018-07-14T10:58:09.914Z,27.30
2018-07-14T11:03:07.324Z,27.00
2018-07-14T11:05:36.014Z,26.80
2018-07-14T11:08:04.764Z,26.90
2018-07-14T11:10:33.390Z,26.90
2018-07-14T11:13:02.135Z,26.90
2018-07-14T11:17:59.057Z,26.90
2018-07-14T11:20:27.727Z,27.10
2018-07-14T11:22:56.409Z,27.00
2018-07-14T11:25:25.092Z,26.60
2018-07-14T11:27:54.024Z,26.80
2018-07-14T11:30:22.766Z,26.90
2018-07-14T11:32:51.349Z,27.20
2018-07-14T11:35:20.024Z,27.20
2018-07-14T11:37:48.835Z,27.50
2018-07-14T11:40:17.559Z,27.30
2018-07-14T11:42:46.270Z,27.20
2018-07-14T11:45:14.872Z,27.00
2018-07-14T11:47:43.727Z,27.20
2018-07-14T11:50:12.842Z,27.50
2018-07-14T11:52:41.524Z,27.70
2018-07-14T11:55:10.283Z,27.80
2018-07-14T11:57:38.915Z,28.10
2018-07-14T12:00:07.613Z,28.20
2018-07-14T12:02:36.848Z,28.10
2018-07-14T12:05:05.651Z,28.10
2018-07-14T12:07:34.355Z,28.40
2018-07-14T12:10:03.111Z,28.30
2018-07-14T12:12:31.777Z,28.30
2018-07-14T12:15:00.555Z,28.60
2018-07-14T12:17:29.258Z,28.70
2018-07-14T12:19:57.934Z,28.90
2018-07-14T12:22:26.709Z,29.10
2018-07-14T12:24:56.320Z,29.10
2018-07-14T12:27:24.977Z,29.40
2018-07-14T12:29:53.671Z,29.30
2018-07-14T12:32:22.430Z,28.80
2018-07-14T12:34:52.102Z,28.90
2018-07-14T12:37:20.801Z,29.10
2018-07-14T12:39:49.414Z,29.50
2018-07-14T12:42:18.032Z,29.80
2018-07-14T12:47:14.934Z,30.00
2018-07-14T12:49:43.578Z,30.20
2018-07-14T12:52:12.222Z,30.20
2018-07-14T12:54:40.847Z,30.30
2018-07-14T12:57:09.517Z,30.40
2018-07-14T12:59:38.209Z,30.20
2018-07-14T13:02:07.510Z,29.80
2018-07-14T13:04:36.262Z,29.50
2018-07-14T13:07:04.988Z,29.80
2018-07-14T13:09:33.685Z,30.00
2018-07-14T13:12:02.503Z,29.90
2018-07-14T13:14:31.689Z,29.80
2018-07-14T13:17:00.571Z,29.90
2018-07-14T13:19:29.256Z,30.00
2018-07-14T13:21:58.015Z,30.40
2018-07-14T13:24:26.741Z,30.30
2018-07-14T13:26:55.461Z,29.90
2018-07-14T13:29:24.159Z,29.60
2018-07-14T13:31:52.871Z,29.20
2018-07-14T13:34:21.512Z,29.00
2018-07-14T13:36:50.215Z,29.10
2018-07-14T13:39:18.954Z,29.50
2018-07-14T13:41:47.675Z,29.70
2018-07-14T13:44:16.346Z,29.80
2018-07-14T13:46:45.122Z,30.10
2018-07-14T13:49:14.094Z,30.40
2018-07-14T13:51:42.751Z,30.10
2018-07-14T13:54:11.481Z,30.30
2018-07-14T13:56:40.097Z,30.50
2018-07-14T13:59:08.748Z,30.80
2018-07-14T14:01:37.452Z,30.80
2018-07-14T14:04:06.160Z,31.00
2018-07-14T14:06:34.875Z,30.80
2018-07-14T14:09:04.311Z,31.00
2018-07-14T14:11:33.109Z,30.60
2018-07-14T14:14:01.733Z,30.70
2018-07-14T14:16:30.431Z,30.70
2018-07-14T14:18:59.139Z,30.50
2018-07-14T14:21:28.243Z,30.70
2018-07-14T14:23:56.864Z,30.50
2018-07-14T14:26:25.521Z,30.10
2018-07-14T14:28:54.239Z,30.20
2018-07-14T14:31:22.924Z,30.40
2018-07-14T14:33:51.614Z,30.20
2018-07-14T14:36:20.650Z,30.20
2018-07-14T14:38:49.344Z,30.00
2018-07-14T14:41:18.010Z,29.60
2018-07-14T14:43:46.706Z,29.50
2018-07-14T14:46:15.364Z,29.70
2018-07-14T14:48:44.005Z,29.70
2018-07-14T14:51:12.795Z,29.70
2018-07-14T14:53:41.495Z,30.00
2018-07-14T14:56:10.473Z,30.30
2018-07-14T14:58:39.033Z,30.20
2018-07-14T15:01:07.807Z,30.20
2018-07-14T15:03:36.505Z,30.30
2018-07-14T15:06:05.355Z,30.50
2018-07-14T15:08:34.071Z,30.50
2018-07-14T15:11:02.750Z,30.70
2018-07-14T15:13:31.447Z,30.80
2018-07-14T15:16:00.125Z,30.40
2018-07-14T15:18:28.878Z,30.40
2018-07-14T15:20:57.654Z,30.20
2018-07-14T15:23:26.353Z,30.10
2018-07-14T15:25:55.188Z,29.80
2018-07-14T15:28:23.808Z,29.50
2018-07-14T15:30:52.590Z,29.80
2018-07-14T15:33:21.312Z,29.40
2018-07-14T15:35:50.132Z,29.20
2018-07-14T15:38:18.874Z,29.40
2018-07-14T15:40:47.591Z,29.60
2018-07-14T15:43:16.477Z,29.70
2018-07-14T15:45:45.618Z,29.70
2018-07-14T15:48:14.344Z,29.80
2018-07-14T15:50:43.141Z,30.10
2018-07-14T15:53:11.917Z,30.40
2018-07-14T15:55:40.797Z,30.50
2018-07-14T15:58:10.149Z,30.90
2018-07-14T16:00:38.967Z,31.20
2018-07-14T16:03:07.822Z,31.40
2018-07-14T16:05:36.641Z,31.20
2018-07-14T16:08:05.462Z,30.90
2018-07-14T16:10:34.282Z,30.50
2018-07-14T16:13:03.091Z,30.10
2018-07-14T16:15:31.945Z,29.50
2018-07-14T16:18:00.726Z,29.20
2018-07-14T16:20:29.450Z,29.20
2018-07-14T16:22:58.152Z,28.70
2018-07-14T16:25:26.909Z,28.40
2018-07-14T16:27:55.685Z,28.20
2018-07-14T16:30:24.415Z,28.10
2018-07-14T16:32:53.209Z,27.80
2018-07-14T16:35:21.977Z,27.70
2018-07-14T16:37:50.723Z,27.70
2018-07-14T16:40:19.443Z,27.60
2018-07-14T16:42:48.302Z,27.60
2018-07-14T16:47:45.356Z,27.40
2018-07-14T16:50:14.104Z,27.30
2018-07-14T16:52:42.858Z,27.10
2018-07-14T16:55:11.592Z,27.10
2018-07-14T16:57:40.404Z,26.90
2018-07-14T17:00:09.259Z,26.80
2018-07-14T17:02:38.085Z,26.80
2018-07-14T17:05:06.839Z,26.80
2018-07-14T17:07:35.566Z,26.70
2018-07-14T17:10:04.360Z,26.80
2018-07-14T17:12:33.067Z,26.80
2018-07-14T17:15:01.748Z,26.90
2018-07-14T17:17:30.462Z,27.00
2018-07-14T17:22:27.500Z,26.70
2018-07-14T17:24:56.287Z,26.80
2018-07-14T17:27:24.999Z,26.80
2018-07-14T17:29:53.701Z,26.70
2018-07-14T17:32:22.626Z,26.70
2018-07-14T17:34:51.950Z,26.80
2018-07-14T17:37:20.673Z,26.80
2018-07-14T17:39:50.342Z,26.60
2018-07-14T17:42:19.112Z,26.40
2018-07-14T17:44:47.807Z,26.40
2018-07-14T17:47:16.530Z,26.50
2018-07-14T17:49:45.286Z,26.40
2018-07-14T17:52:13.991Z,26.40
2018-07-14T17:54:42.715Z,26.20
2018-07-14T17:57:11.389Z,26.20
2018-07-14T17:59:40.140Z,26.00
2018-07-14T18:02:08.969Z,26.10
2018-07-14T18:04:37.723Z,26.00
2018-07-14T18:07:06.470Z,26.00
2018-07-14T18:09:35.161Z,25.90
2018-07-14T18:12:03.948Z,25.90
2018-07-14T18:14:32.652Z,25.90
2018-07-14T18:17:01.377Z,25.80
2018-07-14T18:19:30.124Z,25.90
2018-07-14T18:21:58.816Z,25.90
2018-07-14T18:24:27.601Z,25.90
2018-07-14T18:26:56.285Z,25.80
2018-07-14T18:29:25.017Z,25.80
2018-07-14T18:31:53.752Z,25.70
2018-07-14T18:34:22.423Z,25.60
2018-07-14T18:36:51.145Z,25.50
2018-07-14T18:39:19.849Z,25.50
2018-07-14T18:41:48.549Z,25.50
2018-07-14T18:44:17.167Z,25.30
2018-07-14T18:46:45.901Z,25.30
2018-07-14T18:49:14.595Z,25.20
2018-07-14T18:51:43.300Z,25.00
2018-07-14T18:54:11.982Z,24.90
2018-07-14T18:56:40.705Z,24.80
2018-07-14T18:59:09.408Z,24.80
2018-07-14T19:01:38.280Z,24.80
2018-07-14T19:04:07.271Z,24.70
2018-07-14T19:06:35.967Z,24.70
2018-07-14T19:09:05.307Z,24.70
2018-07-14T19:11:33.951Z,24.60
2018-07-14T19:14:02.701Z,24.50
2018-07-14T19:16:31.399Z,24.40
2018-07-14T19:19:00.108Z,24.30
2018-07-14T19:21:28.807Z,24.30
2018-07-14T19:23:57.521Z,24.20
2018-07-14T19:26:26.206Z,24.20
2018-07-14T19:28:54.915Z,24.10
2018-07-14T19:31:23.608Z,24.00
2018-07-14T19:33:52.288Z,23.90
2018-07-14T19:36:20.985Z,23.90
2018-07-14T19:38:49.712Z,23.70
2018-07-14T19:41:18.435Z,23.60
2018-07-14T19:43:47.169Z,23.50
2018-07-14T19:46:15.838Z,23.40
2018-07-14T19:48:44.580Z,23.30
2018-07-14T19:51:13.842Z,23.20
2018-07-14T19:53:42.508Z,23.10
2018-07-14T19:56:11.300Z,23.00
2018-07-14T19:58:39.972Z,23.00
2018-07-14T20:01:08.615Z,22.90
2018-07-14T20:03:37.272Z,22.80
2018-07-14T20:06:06.012Z,22.70
2018-07-14T20:08:34.774Z,22.60
2018-07-14T20:11:04.395Z,22.60
2018-07-14T20:13:33.070Z,22.50
2018-07-14T20:16:01.723Z,22.40
2018-07-14T20:18:30.545Z,22.40
2018-07-14T20:20:59.229Z,22.40
2018-07-14T20:23:27.881Z,22.30
2018-07-14T20:25:56.598Z,22.20
2018-07-14T20:28:25.261Z,22.20
2018-07-14T20:30:53.952Z,22.10
2018-07-14T20:33:22.602Z,22.10
2018-07-14T20:35:51.376Z,22.00
2018-07-14T20:38:20.023Z,22.00
2018-07-14T20:40:48.728Z,21.90
2018-07-14T20:43:17.380Z,21.80
2018-07-14T20:45:46.145Z,21.80
2018-07-14T20:48:14.828Z,21.70
2018-07-14T20:50:43.493Z,21.60
2018-07-14T20:53:12.179Z,21.60
2018-07-14T20:55:40.855Z,21.60
2018-07-14T20:58:09.535Z,21.50
2018-07-14T21:00:38.207Z,21.50
2018-07-14T21:03:06.855Z,21.40
2018-07-14T21:05:35.527Z,21.30
2018-07-14T21:08:04.289Z,21.30
2018-07-14T21:10:32.913Z,21.20
2018-07-14T21:13:01.917Z,21.20
2018-07-14T21:15:30.623Z,21.10
2018-07-14T21:17:59.300Z,21.00
2018-07-14T21:20:27.988Z,21.00
2018-07-14T21:22:56.700Z,20.90
2018-07-14T21:25:25.366Z,20.80
2018-07-14T21:27:54.042Z,20.80
2018-07-14T21:30:22.654Z,20.80
2018-07-14T21:32:51.355Z,20.70
2018-07-14T21:35:20.095Z,20.70
2018-07-14T21:37:48.737Z,20.70
2018-07-14T21:40:17.544Z,20.60
2018-07-14T21:42:46.204Z,20.60
2018-07-14T21:45:14.901Z,20.60
2018-07-14T21:47:43.678Z,20.50
2018-07-14T21:50:12.485Z,20.50
2018-07-14T21:52:41.193Z,20.50
2018-07-14T21:55:09.893Z,20.40
2018-07-14T21:57:38.571Z,20.30
2018-07-14T22:00:07.618Z,20.20
2018-07-14T22:02:36.312Z,20.20
2018-07-14T22:05:05.053Z,20.20
2018-07-14T22:07:33.759Z,20.10
2018-07-14T22:10:02.421Z,20.10
2018-07-14T22:12:31.092Z,20.10
2018-07-14T22:14:59.868Z,20.00
2018-07-14T22:17:28.576Z,20.00
2018-07-14T22:19:57.303Z,19.90
2018-07-14T22:22:26.004Z,19.90
2018-07-14T22:24:54.737Z,19.90
2018-07-14T22:27:23.345Z,19.80
2018-07-14T22:29:52.053Z,19.70
2018-07-14T22:32:20.798Z,19.60
2018-07-14T22:34:49.502Z,19.60
2018-07-14T22:37:18.146Z,19.50
2018-07-14T22:39:46.822Z,19.50
2018-07-14T22:42:15.634Z,19.40
2018-07-14T22:44:44.360Z,19.40
2018-07-14T22:47:13.100Z,19.40
2018-07-14T22:49:41.829Z,19.30
2018-07-14T22:52:10.531Z,19.30
2018-07-14T22:54:39.204Z,19.20
2018-07-14T22:57:07.885Z,19.20
2018-07-14T23:02:05.345Z,19.10
2018-07-14T23:04:34.009Z,19.00
2018-07-14T23:07:02.776Z,19.00
2018-07-14T23:09:31.433Z,18.90
2018-07-14T23:14:28.432Z,18.90
2018-07-14T23:16:57.147Z,18.90
2018-07-14T23:19:25.768Z,18.80
2018-07-14T23:21:54.427Z,18.80
2018-07-14T23:24:23.154Z,18.80
2018-07-14T23:26:51.804Z,18.70
2018-07-14T23:29:20.496Z,18.70
2018-07-14T23:31:49.154Z,18.70
2018-07-14T23:34:17.806Z,18.60
2018-07-14T23:36:46.459Z,18.60
2018-07-14T23:39:15.191Z,18.50
2018-07-14T23:41:43.988Z,18.40
2018-07-14T23:46:41.054Z,18.40
2018-07-14T23:49:09.763Z,18.40
2018-07-14T23:51:38.451Z,18.40
2018-07-14T23:54:07.108Z,18.40
2018-07-14T23:56:35.741Z,18.30
2018-07-14T23:59:04.433Z,18.20
